Time;durP1;ratioP1;P1;durP2;ratioP2;P2;SDS_P1;SDS_P2;PMS_P1;PMS_P2;Temp;Humidity;BMP_temperature;BMP_pressure;BME280_temperature;BME280_humidity;BME280_pressure;Samples;Min_cycle;Max_cycle;Signal;HPM_P1;HPM_P2
2022/07/10 00:00:32;;;;;;;2.17;0.82;;;;;;;;;;5016057;28;20045;-76
2022/07/10 00:02:58;;;;;;;2.03;1.02;;;;;;;;;;4997957;28;20493;-80
2022/07/10 00:05:25;;;;;;;1.75;0.88;;;;;;;;;;4996754;28;20487;-80
2022/07/10 00:07:51;;;;;;;1.60;0.90;;;;;;;;;;4997126;28;20112;-80
2022/07/10 00:10:18;;;;;;;2.08;0.90;;;;;;;;;;4998084;28;20092;-76
2022/07/10 00:12:45;;;;;;;1.75;1.00;;;;;;;;;;4997238;28;20505;-76
2022/07/10 00:15:11;;;;;;;2.20;1.00;;;;;;;;;;4998099;28;20033;-79
2022/07/10 00:17:39;;;;;;;1.50;1.10;;;;;;;;;;4998045;28;20120;-76
2022/07/10 00:20:06;;;;;;;3.78;1.35;;;;;;;;;;5015497;28;20076;-80
2022/07/10 00:22:35;;;;;;;2.35;1.25;;;;;;;;;;4997623;28;20080;-79
2022/07/10 00:25:02;;;;;;;2.03;1.20;;;;;;;;;;4996906;28;20390;-80
2022/07/10 00:27:28;;;;;;;1.90;1.00;;;;;;;;;;4999028;28;20033;-80
2022/07/10 00:29:54;;;;;;;1.95;1.40;;;;;;;;;;4997556;28;20061;-81
2022/07/10 00:32:20;;;;;;;1.75;1.20;;;;;;;;;;4997559;28;20467;-80
2022/07/10 00:34:46;;;;;;;2.40;1.10;;;;;;;;;;4997673;28;20037;-80
2022/07/10 00:37:13;;;;;;;2.08;1.20;;;;;;;;;;5016439;28;20155;-80
2022/07/10 00:39:39;;;;;;;3.20;1.40;;;;;;;;;;5014669;28;20030;-79
2022/07/10 00:42:09;;;;;;;1.88;0.90;;;;;;;;;;4996821;28;20030;-80
2022/07/10 00:44:39;;;;;;;2.00;1.30;;;;;;;;;;4996964;28;20017;-80
2022/07/10 00:47:06;;;;;;;1.70;1.23;;;;;;;;;;5021541;28;20033;-79
2022/07/10 00:49:32;;;;;;;1.85;1.10;;;;;;;;;;4992873;28;20050;-75
2022/07/10 00:52:00;;;;;;;1.58;1.25;;;;;;;;;;4993910;28;20479;-80
2022/07/10 00:54:27;;;;;;;2.53;1.63;;;;;;;;;;4993481;28;20045;-79
2022/07/10 00:56:53;;;;;;;1.98;1.50;;;;;;;;;;4993733;28;20030;-75
2022/07/10 00:59:19;;;;;;;3.65;1.73;;;;;;;;;;4994161;28;20041;-74
2022/07/10 01:01:45;;;;;;;2.45;1.48;;;;;;;;;;4995489;28;20037;-80
2022/07/10 01:04:11;;;;;;;1.90;1.45;;;;;;;;;;4993821;28;20029;-81
2022/07/10 01:06:37;;;;;;;2.40;1.50;;;;;;;;;;4993805;28;20034;-81
2022/07/10 01:09:04;;;;;;;2.88;1.88;;;;;;;;;;4995038;28;20542;-81
2022/07/10 01:11:33;;;;;;;2.90;1.85;;;;;;;;;;4994368;28;20121;-81
2022/07/10 01:14:02;;;;;;;2.60;1.55;;;;;;;;;;4994852;28;20112;-80
2022/07/10 01:16:29;;;;;;;2.88;1.63;;;;;;;;;;4994914;28;20022;-75
2022/07/10 01:18:55;;;;;;;2.13;1.52;;;;;;;;;;4994014;28;20121;-79
2022/07/10 01:21:24;;;;;;;2.47;1.60;;;;;;;;;;4993136;28;20034;-78
2022/07/10 01:23:51;;;;;;;2.67;1.80;;;;;;;;;;4993173;28;20113;-80
2022/07/10 01:26:18;;;;;;;2.33;1.73;;;;;;;;;;4993363;28;20029;-80
2022/07/10 01:28:44;;;;;;;2.17;1.50;;;;;;;;;;4993657;28;20391;-80
2022/07/10 01:31:10;;;;;;;2.75;1.67;;;;;;;;;;4995007;28;20041;-80
2022/07/10 01:33:36;;;;;;;1.98;1.40;;;;;;;;;;4993312;28;20507;-75
2022/07/10 01:36:03;;;;;;;1.90;1.40;;;;;;;;;;4993705;28;20030;-79
2022/07/10 01:38:29;;;;;;;3.55;1.80;;;;;;;;;;4993476;28;20026;-75
2022/07/10 01:40:55;;;;;;;1.98;1.48;;;;;;;;;;4995309;28;20022;-80
2022/07/10 01:43:21;;;;;;;2.38;1.48;;;;;;;;;;4994840;28;20387;-80
2022/07/10 01:45:48;;;;;;;2.15;1.38;;;;;;;;;;4994020;28;20050;-76
2022/07/10 01:48:15;;;;;;;3.60;2.00;;;;;;;;;;4995127;28;20097;-80
2022/07/10 01:50:41;;;;;;;4.50;2.03;;;;;;;;;;4996354;28;20145;-75
2022/07/10 01:53:07;;;;;;;2.72;1.90;;;;;;;;;;4996440;28;20030;-80
2022/07/10 01:55:33;;;;;;;3.65;1.80;;;;;;;;;;4999738;28;20491;-80
2022/07/10 01:57:59;;;;;;;3.60;2.00;;;;;;;;;;5017991;28;20026;-76
2022/07/10 02:00:25;;;;;;;3.78;1.92;;;;;;;;;;5000224;28;20048;-74
2022/07/10 02:05:37;;;;;;;2.60;1.60;;;;;;;;;;5017733;28;20044;-81
2022/07/10 02:08:05;;;;;;;2.30;1.77;;;;;;;;;;5000690;28;20022;-80
2022/07/10 02:10:33;;;;;;;2.88;1.80;;;;;;;;;;5017382;28;20041;-80
2022/07/10 02:13:00;;;;;;;3.42;1.63;;;;;;;;;;5001116;28;20058;-79
2022/07/10 02:15:26;;;;;;;2.53;1.85;;;;;;;;;;5018040;28;20034;-79
2022/07/10 02:17:52;;;;;;;3.67;1.90;;;;;;;;;;5000165;28;20022;-80
2022/07/10 02:20:18;;;;;;;2.95;1.88;;;;;;;;;;5000093;28;20034;-79
2022/07/10 02:22:44;;;;;;;3.63;2.30;;;;;;;;;;5000057;28;20120;-80
2022/07/10 02:25:11;;;;;;;3.85;2.28;;;;;;;;;;5017329;28;20029;-80
2022/07/10 02:27:37;;;;;;;3.90;1.90;;;;;;;;;;4999602;28;20049;-80
2022/07/10 02:30:03;;;;;;;4.07;1.80;;;;;;;;;;5000491;28;20034;-75
2022/07/10 02:32:29;;;;;;;4.20;2.45;;;;;;;;;;4999590;28;20025;-75
2022/07/10 02:34:55;;;;;;;2.50;2.08;;;;;;;;;;5017685;28;20459;-80
2022/07/10 02:37:25;;;;;;;2.42;2.00;;;;;;;;;;4999362;28;20030;-80
2022/07/10 02:39:51;;;;;;;2.95;2.03;;;;;;;;;;4999577;28;20106;-80
2022/07/10 02:42:17;;;;;;;3.67;2.10;;;;;;;;;;5000280;28;20467;-80
2022/07/10 02:44:43;;;;;;;3.30;2.45;;;;;;;;;;4999895;28;20033;-80
2022/07/10 02:47:09;;;;;;;2.45;2.17;;;;;;;;;;5017501;28;20109;-79
2022/07/10 02:49:37;;;;;;;3.15;2.20;;;;;;;;;;4995347;28;20389;-81
2022/07/10 02:52:03;;;;;;;3.58;2.45;;;;;;;;;;4997198;28;20030;-80
2022/07/10 02:54:29;;;;;;;3.33;2.25;;;;;;;;;;4996284;28;20479;-80
2022/07/10 02:56:55;;;;;;;3.47;2.10;;;;;;;;;;4996935;28;20034;-80
2022/07/10 02:59:21;;;;;;;3.60;2.35;;;;;;;;;;4996057;28;20490;-80
2022/07/10 03:01:47;;;;;;;3.75;2.20;;;;;;;;;;4996463;28;20027;-75
2022/07/10 03:04:14;;;;;;;2.60;2.28;;;;;;;;;;4996737;28;20145;-80
2022/07/10 03:06:40;;;;;;;3.33;2.20;;;;;;;;;;4996159;28;20030;-80
2022/07/10 03:09:06;;;;;;;3.85;2.28;;;;;;;;;;4997032;28;20382;-77
2022/07/10 03:11:32;;;;;;;2.78;2.13;;;;;;;;;;4995457;28;20565;-80
2022/07/10 03:13:58;;;;;;;3.55;2.03;;;;;;;;;;4996109;28;20029;-80
2022/07/10 03:16:25;;;;;;;3.08;2.17;;;;;;;;;;4995728;28;20038;-80
2022/07/10 03:18:51;;;;;;;5.20;2.15;;;;;;;;;;4995611;28;20085;-79
2022/07/10 03:21:17;;;;;;;2.53;2.00;;;;;;;;;;4995047;28;20117;-80
2022/07/10 03:23:43;;;;;;;3.30;2.28;;;;;;;;;;4995548;28;20019;-80
2022/07/10 03:26:09;;;;;;;3.75;2.10;;;;;;;;;;4995333;28;20023;-80
2022/07/10 03:28:39;;;;;;;3.45;2.10;;;;;;;;;;4995722;28;20073;-80
2022/07/10 03:31:05;;;;;;;3.85;2.13;;;;;;;;;;4995133;28;20133;-80
2022/07/10 03:33:31;;;;;;;3.30;2.30;;;;;;;;;;4995575;28;20029;-80
2022/07/10 03:35:57;;;;;;;3.85;2.38;;;;;;;;;;4995062;28;20113;-80
2022/07/10 03:38:23;;;;;;;4.20;2.30;;;;;;;;;;4997025;28;20502;-80
2022/07/10 03:40:50;;;;;;;4.97;2.40;;;;;;;;;;4994899;28;20096;-79
2022/07/10 03:43:16;;;;;;;4.20;2.70;;;;;;;;;;4995104;28;20140;-79
2022/07/10 03:45:42;;;;;;;3.28;2.30;;;;;;;;;;4995245;28;20037;-75
2022/07/10 03:48:08;;;;;;;3.42;2.45;;;;;;;;;;4996805;28;20513;-75
2022/07/10 03:50:34;;;;;;;3.30;2.33;;;;;;;;;;4997685;28;20060;-80
2022/07/10 03:53:00;;;;;;;3.53;2.33;;;;;;;;;;4998452;28;20444;-80
2022/07/10 03:55:26;;;;;;;3.28;2.30;;;;;;;;;;5015945;28;20054;-77
2022/07/10 03:57:57;;;;;;;3.50;2.60;;;;;;;;;;4997909;28;20021;-80
2022/07/10 04:00:23;;;;;;;3.85;2.40;;;;;;;;;;4998164;28;20148;-80
2022/07/10 04:02:55;;;;;;;3.80;2.30;;;;;;;;;;4998203;28;20609;-79
2022/07/10 04:05:21;;;;;;;3.15;2.35;;;;;;;;;;4998049;28;20061;-79
2022/07/10 04:07:47;;;;;;;3.33;2.00;;;;;;;;;;4997880;28;20026;-80
2022/07/10 04:10:13;;;;;;;3.50;2.28;;;;;;;;;;4997674;28;20110;-80
2022/07/10 04:12:40;;;;;;;3.35;2.30;;;;;;;;;;4998057;28;20065;-74
2022/07/10 04:15:06;;;;;;;4.22;2.40;;;;;;;;;;4997968;28;20046;-80
2022/07/10 04:17:32;;;;;;;2.78;2.20;;;;;;;;;;4997588;28;20021;-79
2022/07/10 04:20:01;;;;;;;2.42;2.20;;;;;;;;;;4997916;28;20029;-80
2022/07/10 04:22:28;;;;;;;3.17;2.00;;;;;;;;;;4997212;28;20434;-77
2022/07/10 04:24:54;;;;;;;3.53;1.60;;;;;;;;;;5015328;28;20018;-81
2022/07/10 04:27:20;;;;;;;2.88;1.90;;;;;;;;;;4997613;28;20065;-81
2022/07/10 04:29:47;;;;;;;6.78;1.85;;;;;;;;;;5016190;28;20038;-80
2022/07/10 04:32:13;;;;;;;2.30;1.55;;;;;;;;;;4997910;28;20438;-80
2022/07/10 04:34:39;;;;;;;2.95;1.73;;;;;;;;;;5015085;28;20088;-75
2022/07/10 04:37:07;;;;;;;5.63;2.00;;;;;;;;;;5015226;28;20034;-80
2022/07/10 04:39:34;;;;;;;2.60;1.70;;;;;;;;;;4997536;28;20029;-80
2022/07/10 04:42:01;;;;;;;5.07;1.80;;;;;;;;;;4997331;28;20030;-81
2022/07/10 04:44:27;;;;;;;4.47;1.55;;;;;;;;;;4997339;28;20446;-80
2022/07/10 04:46:53;;;;;;;2.88;1.75;;;;;;;;;;4997382;28;20076;-76
2022/07/10 04:49:19;;;;;;;5.97;1.90;;;;;;;;;;5014750;28;20396;-80
2022/07/10 04:51:49;;;;;;;2.85;1.90;;;;;;;;;;4997323;28;20033;-80
2022/07/10 04:54:15;;;;;;;3.42;2.00;;;;;;;;;;4996596;28;20026;-81
2022/07/10 04:56:41;;;;;;;3.67;1.80;;;;;;;;;;4997236;28;20495;-81
2022/07/10 04:59:07;;;;;;;2.65;2.05;;;;;;;;;;4997081;28;20022;-78
2022/07/10 05:01:33;;;;;;;3.83;1.75;;;;;;;;;;4997553;28;20026;-80
2022/07/10 05:04:00;;;;;;;2.47;1.35;;;;;;;;;;5016463;28;20053;-80
2022/07/10 05:06:27;;;;;;;2.42;1.63;;;;;;;;;;5018694;28;20594;-80
2022/07/10 05:08:54;;;;;;;2.22;1.33;;;;;;;;;;5013441;28;20030;-74
2022/07/10 05:11:21;;;;;;;2.30;1.50;;;;;;;;;;5015496;28;20038;-79
2022/07/10 05:13:48;;;;;;;2.20;1.50;;;;;;;;;;5000020;28;20022;-80
2022/07/10 05:16:15;;;;;;;3.10;1.52;;;;;;;;;;4999244;28;20044;-75
2022/07/10 05:18:41;;;;;;;3.50;1.33;;;;;;;;;;4998830;28;20033;-76
2022/07/10 05:21:10;;;;;;;2.55;1.45;;;;;;;;;;4997740;28;20026;-75
2022/07/10 05:23:38;;;;;;;2.35;1.52;;;;;;;;;;4997843;28;20026;-80
2022/07/10 05:26:06;;;;;;;2.53;1.42;;;;;;;;;;5015554;28;20564;-79
2022/07/10 05:28:32;;;;;;;1.90;1.20;;;;;;;;;;4998113;28;20104;-76
2022/07/10 05:31:06;;;;;;;3.60;1.13;;;;;;;;;;4998174;28;20052;-79
2022/07/10 05:33:32;;;;;;;2.55;1.27;;;;;;;;;;5015071;28;20499;-79
2022/07/10 05:35:58;;;;;;;3.22;1.13;;;;;;;;;;4996433;28;20101;-74
2022/07/10 05:38:24;;;;;;;3.88;1.30;;;;;;;;;;5014244;28;20026;-76
2022/07/10 05:40:52;;;;;;;1.98;1.10;;;;;;;;;;4996625;28;20129;-77
2022/07/10 05:43:19;;;;;;;3.65;1.30;;;;;;;;;;5014627;28;20109;-73
2022/07/10 05:45:45;;;;;;;2.95;1.20;;;;;;;;;;5014221;28;20026;-78
2022/07/10 05:48:11;;;;;;;2.60;1.25;;;;;;;;;;5013916;28;20475;-79
2022/07/10 05:50:37;;;;;;;3.42;1.20;;;;;;;;;;4997367;28;20065;-78
2022/07/10 05:53:12;;;;;;;3.47;1.10;;;;;;;;;;4995975;28;20378;-79
2022/07/10 05:55:38;;;;;;;3.13;1.20;;;;;;;;;;4995789;28;20076;-74
2022/07/10 05:58:04;;;;;;;4.65;1.30;;;;;;;;;;4995774;28;20022;-77
2022/07/10 06:00:30;;;;;;;4.50;1.05;;;;;;;;;;5013707;28;20041;-80
2022/07/10 06:02:57;;;;;;;2.13;1.00;;;;;;;;;;4996029;28;20026;-77
2022/07/10 06:05:23;;;;;;;1.70;1.00;;;;;;;;;;4996636;28;20030;-78
2022/07/10 06:07:49;;;;;;;1.63;1.00;;;;;;;;;;5014264;28;20461;-79
2022/07/10 06:10:15;;;;;;;2.25;1.10;;;;;;;;;;4996154;28;20045;-78
2022/07/10 06:12:41;;;;;;;2.92;1.30;;;;;;;;;;4996520;28;20033;-78
2022/07/10 06:15:07;;;;;;;3.13;1.40;;;;;;;;;;5014475;28;20474;-77
2022/07/10 06:17:34;;;;;;;3.38;1.00;;;;;;;;;;4995986;28;20022;-77
2022/07/10 06:20:00;;;;;;;2.58;1.00;;;;;;;;;;4996125;28;20026;-79
2022/07/10 06:22:33;;;;;;;3.67;1.02;;;;;;;;;;4996186;28;20018;-77
2022/07/10 06:25:00;;;;;;;3.05;0.80;;;;;;;;;;4995823;28;20065;-81
2022/07/10 06:27:27;;;;;;;2.58;0.60;;;;;;;;;;4996261;28;20034;-80
2022/07/10 06:29:53;;;;;;;1.48;0.70;;;;;;;;;;4995300;28;20040;-79
2022/07/10 06:32:19;;;;;;;2.70;0.80;;;;;;;;;;4995482;28;20018;-79
2022/07/10 06:34:45;;;;;;;2.20;0.93;;;;;;;;;;5014370;28;20030;-85
2022/07/10 06:37:12;;;;;;;3.10;0.80;;;;;;;;;;4996126;28;20037;-79
2022/07/10 06:39:38;;;;;;;1.40;0.60;;;;;;;;;;4995886;28;20439;-78
2022/07/10 06:42:05;;;;;;;3.28;0.70;;;;;;;;;;4999094;28;20123;-79
2022/07/10 06:44:31;;;;;;;3.40;0.80;;;;;;;;;;4999324;28;20026;-79
2022/07/10 06:49:43;;;;;;;2.00;0.93;;;;;;;;;;5022050;28;20048;-79
2022/07/10 06:52:09;;;;;;;1.63;0.68;;;;;;;;;;5018765;28;20474;-74
2022/07/10 06:54:35;;;;;;;2.83;0.70;;;;;;;;;;5019051;28;20028;-76
2022/07/10 06:57:01;;;;;;;3.67;0.80;;;;;;;;;;5019008;28;20475;-76
2022/07/10 06:59:28;;;;;;;5.00;0.90;;;;;;;;;;5018593;28;20467;-75
2022/07/10 07:01:54;;;;;;;2.55;0.60;;;;;;;;;;5036074;28;20021;-76
2022/07/10 07:04:20;;;;;;;3.53;0.68;;;;;;;;;;5036367;28;20389;-77
2022/07/10 07:06:47;;;;;;;1.65;0.60;;;;;;;;;;5018555;28;20030;-75
2022/07/10 07:09:13;;;;;;;2.67;0.60;;;;;;;;;;5036108;28;20029;-75
2022/07/10 07:11:39;;;;;;;3.30;0.60;;;;;;;;;;5018538;28;20157;-76
2022/07/10 07:14:05;;;;;;;1.25;0.60;;;;;;;;;;5019308;28;20026;-76
2022/07/10 07:16:45;;;;;;;2.47;0.60;;;;;;;;;;5036525;28;20060;-74
2022/07/10 07:19:17;;;;;;;1.98;0.70;;;;;;;;;;5036716;28;20014;-76
2022/07/10 07:24:36;;;;;;;;;;;;;;;;;;5005975;28;20109;-77
2022/07/10 07:27:02;;;;;;;2.38;0.55;;;;;;;;;;5036164;28;19912;-76
2022/07/10 07:29:28;;;;;;;2.17;0.60;;;;;;;;;;5018274;28;20120;-79
2022/07/10 07:31:55;;;;;;;3.25;0.80;;;;;;;;;;5035925;28;20025;-80
2022/07/10 07:34:21;;;;;;;2.22;0.60;;;;;;;;;;5036199;28;20481;-79
2022/07/10 07:36:47;;;;;;;1.90;0.63;;;;;;;;;;5018159;28;20067;-82
2022/07/10 07:39:13;;;;;;;3.63;0.50;;;;;;;;;;5018560;28;20032;-79
2022/07/10 07:41:40;;;;;;;2.65;0.73;;;;;;;;;;5017765;28;20492;-76
2022/07/10 07:44:06;;;;;;;4.90;0.80;;;;;;;;;;5018252;28;20474;-78
2022/07/10 07:46:32;;;;;;;2.55;1.05;;;;;;;;;;5018967;28;20049;-85
2022/07/10 07:48:59;;;;;;;2.10;0.85;;;;;;;;;;5036327;28;20081;-75
2022/07/10 07:51:26;;;;;;;3.63;0.75;;;;;;;;;;5017240;28;20111;-78
2022/07/10 07:53:52;;;;;;;3.40;0.80;;;;;;;;;;5000184;28;20029;-76
2022/07/10 07:56:18;;;;;;;2.25;0.77;;;;;;;;;;4997371;28;20036;-76
2022/07/10 07:58:44;;;;;;;2.10;0.73;;;;;;;;;;4997810;28;20032;-75
2022/07/10 08:01:10;;;;;;;2.40;0.60;;;;;;;;;;4998051;28;20033;-79
2022/07/10 08:03:36;;;;;;;2.15;0.70;;;;;;;;;;4998036;28;20036;-80
2022/07/10 08:06:02;;;;;;;2.35;0.60;;;;;;;;;;4997935;28;20041;-80
2022/07/10 08:08:29;;;;;;;4.15;0.80;;;;;;;;;;4997642;28;20022;-75
2022/07/10 08:10:55;;;;;;;2.67;0.80;;;;;;;;;;5015387;28;20428;-75
2022/07/10 08:13:21;;;;;;;1.45;0.70;;;;;;;;;;4997727;28;20056;-75
2022/07/10 08:15:48;;;;;;;2.65;0.88;;;;;;;;;;4998564;28;20116;-75
2022/07/10 08:18:14;;;;;;;3.65;0.90;;;;;;;;;;4998114;28;20537;-74
2022/07/10 08:20:40;;;;;;;2.97;0.85;;;;;;;;;;4997554;28;20495;-76
2022/07/10 08:23:06;;;;;;;2.30;0.80;;;;;;;;;;5015827;28;20025;-75
2022/07/10 08:25:33;;;;;;;3.65;1.00;;;;;;;;;;5015546;28;20076;-76
2022/07/10 08:28:03;;;;;;;4.75;1.10;;;;;;;;;;4997559;28;20057;-74
2022/07/10 08:30:30;;;;;;;1.80;1.00;;;;;;;;;;4997405;28;20398;-75
2022/07/10 08:32:56;;;;;;;3.22;0.88;;;;;;;;;;4997611;28;20113;-79
2022/07/10 08:35:23;;;;;;;2.50;1.10;;;;;;;;;;5015008;28;20356;-79
2022/07/10 08:37:49;;;;;;;3.72;1.15;;;;;;;;;;4997379;28;20365;-78
2022/07/10 08:40:16;;;;;;;1.98;1.20;;;;;;;;;;4996912;28;20037;-75
2022/07/10 08:42:44;;;;;;;4.13;1.50;;;;;;;;;;5014451;28;20368;-75
2022/07/10 08:45:11;;;;;;;4.97;1.20;;;;;;;;;;4997135;28;20029;-76
2022/07/10 08:47:41;;;;;;;3.80;1.30;;;;;;;;;;5015058;28;20018;-79
2022/07/10 08:50:23;;;;;;;2.30;1.10;;;;;;;;;;5014458;28;20101;-74
2022/07/10 08:52:55;;;;;;;3.33;1.35;;;;;;;;;;4997112;28;20030;-75
2022/07/10 08:55:25;;;;;;;3.55;1.45;;;;;;;;;;4997198;28;20049;-74
2022/07/10 08:57:51;;;;;;;3.97;1.35;;;;;;;;;;5015271;28;20085;-77
2022/07/10 09:00:21;;;;;;;2.65;1.10;;;;;;;;;;4997063;28;20033;-77
2022/07/10 09:02:47;;;;;;;3.53;1.40;;;;;;;;;;5015160;28;20391;-76
2022/07/10 09:05:14;;;;;;;4.38;1.40;;;;;;;;;;4996348;28;20168;-77
2022/07/10 09:07:44;;;;;;;3.80;1.67;;;;;;;;;;4996934;28;20033;-84
2022/07/10 09:10:11;;;;;;;2.38;1.35;;;;;;;;;;4996513;28;20034;-75
2022/07/10 09:12:56;;;;;;;2.70;1.20;;;;;;;;;;4996659;28;20101;-79
2022/07/10 09:15:23;;;;;;;3.90;1.15;;;;;;;;;;4996766;28;20037;-79
2022/07/10 09:17:53;;;;;;;3.28;1.25;;;;;;;;;;5014439;28;20052;-76
2022/07/10 09:20:26;;;;;;;3.03;1.08;;;;;;;;;;5013904;28;20025;-76
2022/07/10 09:22:52;;;;;;;2.15;1.10;;;;;;;;;;4996565;28;20047;-76
2022/07/10 09:25:19;;;;;;;3.97;1.00;;;;;;;;;;5014197;28;20035;-77
2022/07/10 09:27:53;;;;;;;2.33;1.10;;;;;;;;;;4996394;28;20037;-77
2022/07/10 09:30:38;;;;;;;3.83;1.33;;;;;;;;;;4995529;28;20042;-75
2022/07/10 09:33:26;;;;;;;3.13;1.30;;;;;;;;;;4996166;28;20030;-75
2022/07/10 09:36:10;;;;;;;2.90;1.20;;;;;;;;;;4994472;28;20112;-75
2022/07/10 09:38:57;;;;;;;3.55;1.15;;;;;;;;;;4995188;28;20083;-76
2022/07/10 09:41:31;;;;;;;2.72;1.00;;;;;;;;;;5014411;28;20026;-90
2022/07/10 09:44:00;;;;;;;3.63;1.20;;;;;;;;;;4997844;28;20030;-88
2022/07/10 09:46:38;;;;;;;8.13;1.45;;;;;;;;;;4977970;28;20070;-90
2022/07/10 09:49:06;;;;;;;4.28;1.30;;;;;;;;;;4974163;28;20047;-89
2022/07/10 09:51:39;;;;;;;2.10;1.13;;;;;;;;;;4992249;28;20038;-95
2022/07/10 09:54:09;;;;;;;3.15;1.13;;;;;;;;;;4994888;28;20365;-89
2022/07/10 09:56:51;;;;;;;3.67;1.10;;;;;;;;;;4994367;28;20026;-88
2022/07/10 10:02:06;;;;;;;2.17;1.05;;;;;;;;;;4997138;28;20030;-94
2022/07/10 10:04:36;;;;;;;2.95;1.00;;;;;;;;;;4995588;28;20101;-90
2022/07/10 10:07:02;;;;;;;5.88;1.30;;;;;;;;;;4993911;28;20035;-89
2022/07/10 10:09:32;;;;;;;2.63;1.00;;;;;;;;;;4994019;28;20034;-88
2022/07/10 10:12:19;;;;;;;4.55;1.30;;;;;;;;;;4996425;28;20027;-89
2022/07/10 10:14:45;;;;;;;2.30;0.90;;;;;;;;;;4986537;28;20038;-90
2022/07/10 10:17:13;;;;;;;3.88;1.00;;;;;;;;;;4999941;28;20026;-93
2022/07/10 10:22:26;;;;;;;2.90;0.73;;;;;;;;;;5000100;28;20045;-89
2022/07/10 10:25:05;;;;;;;2.97;0.80;;;;;;;;;;4998026;28;20057;-93
2022/07/10 10:27:36;;;;;;;2.10;0.68;;;;;;;;;;4999641;28;20034;-90
2022/07/10 10:30:05;;;;;;;2.85;0.70;;;;;;;;;;4999317;28;20496;-93
2022/07/10 10:32:40;;;;;;;2.38;0.57;;;;;;;;;;4999348;28;20022;-89
2022/07/10 10:35:09;;;;;;;3.08;0.70;;;;;;;;;;4998422;28;20599;-90
2022/07/10 10:37:42;;;;;;;3.88;0.70;;;;;;;;;;4998788;28;20483;-88
2022/07/10 10:40:09;;;;;;;4.15;1.00;;;;;;;;;;5005465;28;20046;-92
2022/07/10 10:42:47;;;;;;;3.03;0.70;;;;;;;;;;5004295;28;20029;-92
2022/07/10 10:45:35;;;;;;;2.28;0.80;;;;;;;;;;5005351;28;20038;-91
2022/07/10 10:48:17;;;;;;;2.67;0.80;;;;;;;;;;5002594;28;20010;-94
2022/07/10 10:51:02;;;;;;;2.85;0.90;;;;;;;;;;5003856;28;20053;-94
2022/07/10 10:53:35;;;;;;;2.28;0.80;;;;;;;;;;5000128;28;20097;-95
2022/07/10 10:56:07;;;;;;;3.63;0.90;;;;;;;;;;5002816;28;20006;-92
2022/07/10 10:58:46;;;;;;;5.93;1.15;;;;;;;;;;5005042;28;20007;-92
2022/07/10 11:01:22;;;;;;;3.72;0.75;;;;;;;;;;5006339;28;20550;-91
2022/07/10 11:04:07;;;;;;;6.22;1.02;;;;;;;;;;5022249;22;20065;-88
2022/07/10 11:09:36;;;;;;;5.43;1.00;;;;;;;;;;5092687;22;20045;-90
2022/07/10 11:14:59;;;;;;;5.60;1.00;;;;;;;;;;5077760;22;20057;-90
2022/07/10 11:17:45;;;;;;;4.63;0.95;;;;;;;;;;5009856;28;20022;-95
2022/07/10 11:20:11;;;;;;;5.05;0.98;;;;;;;;;;5006520;28;20087;-90
2022/07/10 11:23:07;;;;;;;3.67;0.80;;;;;;;;;;5145623;23;20053;-91
2022/07/10 11:26:06;;;;;;;2.90;0.80;;;;;;;;;;5007636;28;20372;-92
2022/07/10 11:29:18;;;;;;;2.67;0.70;;;;;;;;;;4983978;28;20030;-92
2022/07/10 11:31:52;;;;;;;3.08;0.80;;;;;;;;;;5020868;22;20220;-91
2022/07/10 11:34:27;;;;;;;7.05;0.88;;;;;;;;;;5008973;28;20467;-92
2022/07/10 11:36:53;;;;;;;2.80;0.90;;;;;;;;;;5007283;28;20025;-90
2022/07/10 11:39:45;;;;;;;2.75;0.80;;;;;;;;;;5007902;28;20026;-91
2022/07/10 11:42:15;;;;;;;1.77;0.50;;;;;;;;;;5026530;28;20040;-92
2022/07/10 11:44:41;;;;;;;3.97;0.60;;;;;;;;;;5009330;28;20030;-92
2022/07/10 11:47:19;;;;;;;4.07;0.70;;;;;;;;;;5008418;28;20448;-90
2022/07/10 11:49:47;;;;;;;5.55;0.85;;;;;;;;;;5001822;28;20009;-91
2022/07/10 11:52:13;;;;;;;2.78;0.68;;;;;;;;;;5000070;28;20068;-90
2022/07/10 11:54:42;;;;;;;7.07;0.95;;;;;;;;;;5000942;28;20030;-90
2022/07/10 11:57:08;;;;;;;3.03;0.68;;;;;;;;;;4999859;28;20026;-90
2022/07/10 11:59:34;;;;;;;4.13;0.88;;;;;;;;;;5000093;28;20071;-91
2022/07/10 12:02:01;;;;;;;2.65;0.57;;;;;;;;;;4999710;28;20048;-89
2022/07/10 12:04:29;;;;;;;4.97;0.60;;;;;;;;;;4984625;28;20034;-90
2022/07/10 12:06:55;;;;;;;4.47;0.68;;;;;;;;;;4999877;28;20025;-90
2022/07/10 12:09:23;;;;;;;7.35;0.95;;;;;;;;;;4999329;28;20434;-92
2022/07/10 12:12:02;;;;;;;3.15;0.43;;;;;;;;;;5001339;28;20034;-93
2022/07/10 12:14:32;;;;;;;2.47;0.70;;;;;;;;;;4999526;28;20471;-94
2022/07/10 12:16:59;;;;;;;5.70;0.60;;;;;;;;;;4999348;28;20118;-92
2022/07/10 12:19:27;;;;;;;2.30;0.50;;;;;;;;;;4999338;28;20463;-95
2022/07/10 12:21:54;;;;;;;3.75;0.73;;;;;;;;;;5001238;28;20049;-93
2022/07/10 12:24:20;;;;;;;2.80;0.60;;;;;;;;;;5004775;28;20029;-92
2022/07/10 12:26:52;;;;;;;2.97;0.45;;;;;;;;;;5005585;28;20032;-95
2022/07/10 12:29:25;;;;;;;2.97;0.45;;;;;;;;;;5003046;28;20034;-94
2022/07/10 12:34:59;;;;;;;8.82;0.65;;;;;;;;;;5018054;28;20145;-93
2022/07/10 12:37:25;;;;;;;6.32;0.82;;;;;;;;;;5006728;28;20030;-93
2022/07/10 12:39:53;;;;;;;3.22;0.40;;;;;;;;;;5011391;28;20030;-94
2022/07/10 12:42:34;;;;;;;3.38;0.60;;;;;;;;;;5006186;28;20030;-92
2022/07/10 12:45:13;;;;;;;3.00;0.50;;;;;;;;;;5006500;28;20018;-92
2022/07/10 12:47:47;;;;;;;4.30;0.70;;;;;;;;;;5005861;28;20024;-95
2022/07/10 12:50:14;;;;;;;4.18;0.52;;;;;;;;;;5002141;28;20056;-94
2022/07/10 12:52:40;;;;;;;4.95;0.60;;;;;;;;;;5002596;28;20034;-93
2022/07/10 12:55:14;;;;;;;2.20;0.40;;;;;;;;;;4999109;28;20045;-94
2022/07/10 12:57:50;;;;;;;2.47;0.52;;;;;;;;;;4998734;28;20026;-96
2022/07/10 13:00:24;;;;;;;1.88;0.43;;;;;;;;;;4998602;28;20025;-93
2022/07/10 13:02:57;;;;;;;1.80;0.30;;;;;;;;;;5015499;28;20034;-90
2022/07/10 13:05:30;;;;;;;4.70;0.60;;;;;;;;;;5002948;28;20087;-92
2022/07/10 13:08:15;;;;;;;6.57;0.60;;;;;;;;;;4999129;28;20026;-92
2022/07/10 13:10:41;;;;;;;2.17;0.43;;;;;;;;;;5012974;28;20069;-91
2022/07/10 13:13:17;;;;;;;2.75;0.40;;;;;;;;;;5015202;28;20026;-94
2022/07/10 13:15:50;;;;;;;2.67;0.43;;;;;;;;;;5015587;28;20026;-92
2022/07/10 13:18:21;;;;;;;5.60;0.45;;;;;;;;;;5014879;28;20494;-92
2022/07/10 13:20:48;;;;;;;3.83;0.50;;;;;;;;;;5017679;28;20025;-93
2022/07/10 13:23:15;;;;;;;3.72;0.55;;;;;;;;;;5015048;28;20061;-93
2022/07/10 13:25:42;;;;;;;4.03;0.60;;;;;;;;;;4983444;28;20030;-94
2022/07/10 13:28:08;;;;;;;2.05;0.38;;;;;;;;;;5015719;28;20105;-93
2022/07/10 13:30:35;;;;;;;3.47;0.50;;;;;;;;;;5015783;28;20107;-92
2022/07/10 13:33:02;;;;;;;5.72;0.60;;;;;;;;;;5016113;28;20543;-93
2022/07/10 13:35:33;;;;;;;2.53;0.40;;;;;;;;;;5016194;28;20018;-92
2022/07/10 13:38:02;;;;;;;24.00;0.65;;;;;;;;;;5044177;23;20062;-93
2022/07/10 13:40:44;;;;;;;2.75;0.50;;;;;;;;;;4997199;28;20085;-91
2022/07/10 13:43:12;;;;;;;4.72;0.52;;;;;;;;;;4999134;28;20387;-91
2022/07/10 13:45:42;;;;;;;1.42;0.40;;;;;;;;;;4994066;28;20029;-91
2022/07/10 13:48:30;;;;;;;3.35;0.45;;;;;;;;;;4995034;28;20057;-95
2022/07/10 13:51:03;;;;;;;2.53;0.35;;;;;;;;;;5000547;28;20081;-95
2022/07/10 13:54:03;;;;;;;;;;;;;;;;;;5005089;28;20019;-95
2022/07/10 13:56:38;;;;;;;2.17;0.35;;;;;;;;;;5008936;28;19944;-93
2022/07/10 13:59:21;;;;;;;2.00;0.30;;;;;;;;;;4999885;28;20439;-87
2022/07/10 14:01:47;;;;;;;9.20;0.70;;;;;;;;;;4997677;28;20089;-90
2022/07/10 14:04:13;;;;;;;2.20;0.45;;;;;;;;;;4998530;28;20045;-90
2022/07/10 14:06:41;;;;;;;0.90;0.30;;;;;;;;;;4998377;28;20026;-91
2022/07/10 14:09:08;;;;;;;16.13;1.30;;;;;;;;;;4998796;28;20471;-93
2022/07/10 14:11:34;;;;;;;5.15;0.50;;;;;;;;;;4998170;28;20045;-92
2022/07/10 14:14:01;;;;;;;1.25;0.28;;;;;;;;;;5003681;28;20037;-94
2022/07/10 14:16:27;;;;;;;1.42;0.20;;;;;;;;;;4998671;28;20117;-93
2022/07/10 14:18:54;;;;;;;3.67;0.30;;;;;;;;;;4998076;28;20022;-93
2022/07/10 14:21:20;;;;;;;1.55;0.40;;;;;;;;;;4998193;28;20487;-93
2022/07/10 14:23:48;;;;;;;2.80;0.50;;;;;;;;;;4998429;28;20125;-91
2022/07/10 14:26:15;;;;;;;2.40;0.40;;;;;;;;;;4997882;28;20121;-90
2022/07/10 14:28:42;;;;;;;1.90;0.30;;;;;;;;;;4997632;28;20049;-92
2022/07/10 14:31:08;;;;;;;2.58;0.30;;;;;;;;;;4997703;28;20030;-93
2022/07/10 14:33:36;;;;;;;1.08;0.30;;;;;;;;;;4996632;28;20037;-93
2022/07/10 14:36:03;;;;;;;0.75;0.30;;;;;;;;;;4997443;28;20037;-92
2022/07/10 14:38:29;;;;;;;1.27;0.20;;;;;;;;;;4999599;28;20100;-93
2022/07/10 14:40:59;;;;;;;2.78;0.40;;;;;;;;;;5004913;28;20022;-92
2022/07/10 14:43:26;;;;;;;1.27;0.20;;;;;;;;;;4997347;28;20509;-91
2022/07/10 14:45:52;;;;;;;2.03;0.30;;;;;;;;;;4997863;28;20030;-93
2022/07/10 14:48:18;;;;;;;3.58;0.55;;;;;;;;;;4997438;28;20030;-91
2022/07/10 14:50:47;;;;;;;3.92;0.43;;;;;;;;;;4997760;28;20042;-93
2022/07/10 14:53:13;;;;;;;1.85;0.30;;;;;;;;;;4997377;28;20464;-93
2022/07/10 14:55:45;;;;;;;1.27;0.30;;;;;;;;;;4997721;28;20339;-92
2022/07/10 14:58:11;;;;;;;1.48;0.30;;;;;;;;;;4997549;28;20034;-91
2022/07/10 15:00:38;;;;;;;2.35;0.30;;;;;;;;;;4997447;28;20117;-93
2022/07/10 15:03:04;;;;;;;4.35;0.35;;;;;;;;;;4997101;28;20463;-93
2022/07/10 15:05:45;;;;;;;0.70;0.10;;;;;;;;;;4980895;28;20129;-93
2022/07/10 15:08:29;;;;;;;7.57;0.93;;;;;;;;;;4997691;28;20060;-94
2022/07/10 15:10:55;;;;;;;6.35;0.52;;;;;;;;;;4999141;28;20038;-93
2022/07/10 15:13:26;;;;;;;4.93;0.55;;;;;;;;;;4997701;28;20027;-93
2022/07/10 15:15:55;;;;;;;9.13;0.45;;;;;;;;;;4983110;28;20038;-94